createdAt,value
2022-08-25T00:00:43.625Z,53.80
2022-08-25T00:02:17.369Z,54.00
2022-08-25T00:03:51.425Z,53.90
2022-08-25T00:05:29.017Z,54.10
2022-08-25T00:07:03.664Z,54.30
2022-08-25T00:08:39.908Z,54.20
2022-08-25T00:10:13.292Z,54.30
2022-08-25T00:11:49.256Z,54.30
2022-08-25T00:13:23.510Z,54.40
2022-08-25T00:14:59.789Z,54.40
2022-08-25T00:16:32.568Z,54.40
2022-08-25T00:18:16.598Z,54.40
2022-08-25T00:19:53.121Z,54.50
2022-08-25T00:21:27.741Z,54.50
2022-08-25T00:23:01.443Z,54.60
2022-08-25T00:24:36.518Z,54.50
2022-08-25T00:26:10.791Z,54.50
2022-08-25T00:27:44.558Z,54.60
2022-08-25T00:29:21.408Z,54.70
2022-08-25T00:30:54.910Z,54.80
2022-08-25T00:32:28.573Z,54.70
2022-08-25T00:34:02.387Z,54.70
2022-08-25T00:35:36.384Z,54.70
2022-08-25T00:37:10.387Z,54.70
2022-08-25T00:38:46.302Z,54.70
2022-08-25T00:40:21.449Z,54.80
2022-08-25T00:41:57.772Z,54.80
2022-08-25T00:43:46.366Z,54.90
2022-08-25T00:45:20.314Z,55.00
2022-08-25T00:46:57.829Z,54.90
2022-08-25T00:48:31.689Z,55.00
2022-08-25T00:50:10.384Z,55.00
2022-08-25T00:51:51.147Z,55.20
2022-08-25T00:53:25.162Z,55.20
2022-08-25T00:55:08.069Z,55.20
2022-08-25T00:56:45.230Z,55.40
2022-08-25T00:58:25.964Z,55.30
2022-08-25T01:00:00.284Z,55.40
2022-08-25T01:01:40.194Z,55.30
2022-08-25T01:03:20.057Z,55.50
2022-08-25T01:04:54.432Z,55.50
2022-08-25T01:06:32.260Z,55.40
2022-08-25T01:08:10.959Z,55.50
2022-08-25T01:09:50.776Z,55.60
2022-08-25T01:11:28.436Z,55.50
2022-08-25T01:13:16.789Z,55.50
2022-08-25T01:14:53.698Z,55.80
2022-08-25T01:16:29.075Z,55.70
2022-08-25T01:18:07.291Z,55.70
2022-08-25T01:19:42.175Z,55.60
2022-08-25T01:21:18.489Z,55.60
2022-08-25T01:22:55.301Z,55.70
2022-08-25T01:24:39.592Z,55.70
2022-08-25T01:26:16.734Z,55.90
2022-08-25T01:27:49.652Z,55.70
2022-08-25T01:29:25.186Z,55.70
2022-08-25T01:30:58.701Z,56.50
2022-08-25T01:32:35.720Z,55.90
2022-08-25T01:34:12.178Z,56.00
2022-08-25T01:35:46.391Z,56.00
2022-08-25T01:37:21.226Z,56.60
2022-08-25T01:38:55.108Z,56.00
2022-08-25T01:40:29.178Z,55.90
2022-08-25T01:42:29.815Z,56.40
2022-08-25T01:44:05.531Z,56.30
2022-08-25T01:45:42.667Z,55.90
2022-08-25T01:47:17.460Z,55.90
2022-08-25T01:48:51.138Z,56.00
2022-08-25T01:50:25.002Z,56.10
2022-08-25T01:52:06.354Z,56.10
2022-08-25T01:53:41.093Z,56.30
2022-08-25T01:55:15.097Z,56.20
2022-08-25T01:56:48.436Z,56.20
2022-08-25T01:58:22.620Z,56.30
2022-08-25T01:59:55.965Z,56.40
2022-08-25T02:01:31.538Z,56.30
2022-08-25T02:03:06.455Z,56.50
2022-08-25T02:04:50.702Z,56.60
2022-08-25T02:06:29.801Z,56.50
2022-08-25T02:08:03.123Z,56.60
2022-08-25T02:09:39.683Z,56.60
2022-08-25T02:11:14.717Z,56.70
2022-08-25T02:12:48.167Z,56.60
2022-08-25T02:14:21.816Z,56.50
2022-08-25T02:15:58.082Z,56.60
2022-08-25T02:17:31.603Z,56.80
2022-08-25T02:19:08.552Z,56.70
2022-08-25T02:20:41.806Z,56.90
2022-08-25T02:22:15.420Z,56.90
2022-08-25T02:23:48.936Z,56.90
2022-08-25T02:25:23.790Z,56.90
2022-08-25T02:26:58.020Z,57.00
2022-08-25T02:28:31.962Z,57.00
2022-08-25T02:30:07.036Z,57.00
2022-08-25T02:31:41.333Z,57.00
2022-08-25T02:33:14.773Z,56.90
2022-08-25T02:34:49.405Z,56.90
2022-08-25T02:36:23.332Z,56.90
2022-08-25T02:37:57.266Z,57.00
2022-08-25T02:39:30.823Z,57.00
2022-08-25T02:41:13.784Z,57.10
2022-08-25T02:42:47.273Z,57.40
2022-08-25T02:44:20.728Z,57.30
2022-08-25T02:45:55.471Z,57.30
2022-08-25T02:47:29.376Z,57.40
2022-08-25T02:49:03.171Z,57.50
2022-08-25T02:50:36.504Z,57.50
2022-08-25T02:52:10.220Z,57.50
2022-08-25T02:53:46.021Z,57.60
2022-08-25T02:55:21.578Z,57.60
2022-08-25T02:56:56.365Z,57.60
2022-08-25T02:58:29.937Z,57.70
2022-08-25T03:00:22.080Z,57.60
2022-08-25T03:01:57.173Z,57.60
2022-08-25T03:03:30.701Z,57.60
2022-08-25T03:05:05.281Z,57.70
2022-08-25T03:06:38.647Z,57.80
2022-08-25T03:08:12.741Z,57.80
2022-08-25T03:09:47.039Z,57.90
2022-08-25T03:11:21.167Z,57.90
2022-08-25T03:12:55.820Z,58.00
2022-08-25T03:14:30.255Z,58.00
2022-08-25T03:16:10.851Z,58.10
2022-08-25T03:17:45.966Z,58.20
2022-08-25T03:19:19.419Z,58.10
2022-08-25T03:20:53.107Z,57.90
2022-08-25T03:22:26.932Z,58.00
2022-08-25T03:24:01.690Z,58.00
2022-08-25T03:25:52.968Z,58.10
2022-08-25T03:27:30.405Z,58.10
2022-08-25T03:29:05.778Z,58.10
2022-08-25T03:30:39.575Z,58.20
2022-08-25T03:32:12.961Z,58.20
2022-08-25T03:33:45.659Z,58.20
2022-08-25T03:35:19.670Z,58.30
2022-08-25T03:36:55.427Z,58.40
2022-08-25T03:38:29.369Z,58.40
2022-08-25T03:40:04.290Z,58.40
2022-08-25T03:41:38.418Z,58.60
2022-08-25T03:43:10.808Z,58.60
2022-08-25T03:44:45.578Z,58.60
2022-08-25T03:46:21.230Z,58.60
2022-08-25T03:47:54.990Z,58.70
2022-08-25T03:49:29.624Z,58.70
2022-08-25T03:51:03.551Z,58.80
2022-08-25T03:52:42.432Z,58.80
2022-08-25T03:54:20.139Z,58.90
2022-08-25T03:55:54.258Z,59.00
2022-08-25T03:57:28.157Z,59.00
2022-08-25T03:59:01.467Z,59.10
2022-08-25T04:00:36.578Z,59.10
2022-08-25T04:02:10.945Z,59.20
2022-08-25T04:03:44.609Z,59.20
2022-08-25T04:05:20.146Z,59.20
2022-08-25T04:06:54.368Z,59.10
2022-08-25T04:08:27.931Z,59.20
2022-08-25T04:10:02.001Z,59.30
2022-08-25T04:11:36.137Z,59.40
2022-08-25T04:13:11.975Z,59.40
2022-08-25T04:14:45.433Z,59.50
2022-08-25T04:16:24.243Z,59.50
2022-08-25T04:17:59.074Z,59.60
2022-08-25T04:19:32.824Z,59.50
2022-08-25T04:21:09.081Z,59.50
2022-08-25T04:22:44.818Z,59.70
2022-08-25T04:24:19.135Z,59.70
2022-08-25T04:25:52.231Z,59.90
2022-08-25T04:27:25.722Z,59.90
2022-08-25T04:29:01.091Z,59.90
2022-08-25T04:30:34.447Z,60.00
2022-08-25T04:32:09.811Z,60.00
2022-08-25T04:33:43.966Z,60.10
2022-08-25T04:35:18.084Z,60.20
2022-08-25T04:36:52.686Z,60.20
2022-08-25T04:38:27.618Z,60.30
2022-08-25T04:40:02.466Z,60.20
2022-08-25T04:41:35.928Z,60.30
2022-08-25T04:43:09.995Z,60.50
2022-08-25T04:44:43.451Z,60.50
2022-08-25T04:46:20.993Z,60.50
2022-08-25T04:47:59.673Z,60.70
2022-08-25T04:49:33.088Z,60.70
2022-08-25T04:51:07.325Z,60.60
2022-08-25T04:52:41.319Z,60.60
2022-08-25T04:54:21.501Z,60.60
2022-08-25T04:55:55.235Z,60.70
2022-08-25T04:57:28.582Z,60.70
2022-08-25T04:59:05.660Z,60.60
2022-08-25T05:00:40.162Z,60.70
2022-08-25T05:02:13.712Z,60.60
2022-08-25T05:03:53.870Z,60.60
2022-08-25T05:05:27.560Z,60.90
2022-08-25T05:07:01.137Z,60.80
2022-08-25T05:08:35.656Z,60.90
2022-08-25T05:10:10.015Z,61.00
2022-08-25T05:11:44.087Z,61.10
2022-08-25T05:13:17.859Z,61.00
2022-08-25T05:14:53.995Z,61.10
2022-08-25T05:16:28.938Z,61.30
2022-08-25T05:18:02.294Z,61.30
2022-08-25T05:19:38.004Z,61.30
2022-08-25T05:21:14.612Z,61.50
2022-08-25T05:22:48.417Z,61.50
2022-08-25T05:24:22.791Z,61.50
2022-08-25T05:25:56.514Z,61.60
2022-08-25T05:27:30.336Z,61.70
2022-08-25T05:29:05.486Z,61.70
2022-08-25T05:30:40.387Z,61.80
2022-08-25T05:32:13.789Z,61.90
2022-08-25T05:33:47.340Z,61.90
2022-08-25T05:35:22.319Z,61.90
2022-08-25T05:36:59.993Z,62.00
2022-08-25T05:38:34.447Z,62.00
2022-08-25T05:40:10.475Z,62.10
2022-08-25T05:41:44.007Z,62.10
2022-08-25T05:43:17.786Z,62.10
2022-08-25T05:44:50.738Z,62.10
2022-08-25T05:46:25.722Z,62.20
2022-08-25T05:48:00.520Z,62.40
2022-08-25T05:49:34.138Z,62.60
2022-08-25T05:51:11.550Z,62.70
2022-08-25T05:52:45.879Z,62.70
2022-08-25T05:54:19.743Z,62.80
2022-08-25T05:55:55.757Z,63.10
2022-08-25T05:57:29.094Z,63.40
2022-08-25T05:59:07.304Z,63.20
2022-08-25T06:00:42.864Z,63.30
2022-08-25T06:02:34.092Z,63.50
2022-08-25T06:04:08.531Z,63.70
2022-08-25T06:05:42.057Z,64.50
2022-08-25T06:07:17.042Z,63.80
2022-08-25T06:08:51.437Z,64.10
2022-08-25T06:10:25.233Z,64.30
2022-08-25T06:11:58.735Z,64.40
2022-08-25T06:13:32.171Z,64.50
2022-08-25T06:15:07.988Z,64.70
2022-08-25T06:16:41.861Z,64.70
2022-08-25T06:18:15.235Z,64.90
2022-08-25T06:19:48.690Z,65.00
2022-08-25T06:21:22.972Z,65.10
2022-08-25T06:22:59.185Z,65.20
2022-08-25T06:24:33.178Z,65.30
2022-08-25T06:26:08.118Z,65.40
2022-08-25T06:27:42.754Z,65.50
2022-08-25T06:29:16.611Z,65.60
2022-08-25T06:30:49.913Z,65.60
2022-08-25T06:32:23.416Z,65.70
2022-08-25T06:33:58.246Z,66.50
2022-08-25T06:35:31.590Z,65.80
2022-08-25T06:37:07.452Z,65.80
2022-08-25T06:38:42.341Z,65.80
2022-08-25T06:40:17.496Z,66.00
2022-08-25T06:41:53.806Z,65.90
2022-08-25T06:43:27.742Z,66.00
2022-08-25T06:45:01.303Z,65.80
2022-08-25T06:46:37.123Z,65.70
2022-08-25T06:48:11.722Z,65.80
2022-08-25T06:49:46.288Z,65.90
2022-08-25T06:51:21.552Z,65.70
2022-08-25T06:52:55.213Z,65.70
2022-08-25T06:54:30.227Z,65.70
2022-08-25T06:56:06.709Z,65.90
2022-08-25T06:57:40.984Z,65.70
2022-08-25T06:59:15.318Z,65.70
2022-08-25T07:00:49.212Z,65.80
2022-08-25T07:02:23.340Z,65.90
2022-08-25T07:04:00.558Z,66.00
2022-08-25T07:05:43.507Z,66.00
2022-08-25T07:07:17.528Z,65.90
2022-08-25T07:08:51.019Z,65.80
2022-08-25T07:10:25.917Z,65.70
2022-08-25T07:11:59.415Z,65.60
2022-08-25T07:13:32.959Z,65.70
2022-08-25T07:15:19.818Z,65.60
2022-08-25T07:16:54.247Z,65.50
2022-08-25T07:18:28.223Z,65.60
2022-08-25T07:20:01.539Z,65.60
2022-08-25T07:21:39.716Z,65.60
2022-08-25T07:23:13.576Z,65.60
2022-08-25T07:24:46.983Z,65.40
2022-08-25T07:26:37.176Z,65.50
2022-08-25T07:28:12.084Z,65.70
2022-08-25T07:29:46.506Z,65.70
2022-08-25T07:31:20.220Z,66.00
2022-08-25T07:32:55.492Z,65.90
2022-08-25T07:36:40.480Z,66.00
2022-08-25T07:38:19.660Z,66.20
2022-08-25T07:39:55.359Z,66.10
2022-08-25T07:41:37.320Z,66.90
2022-08-25T07:43:11.274Z,66.30
2022-08-25T07:44:44.784Z,65.50
2022-08-25T07:46:18.710Z,66.30
2022-08-25T07:47:53.788Z,66.30
2022-08-25T07:49:35.866Z,67.00
2022-08-25T07:51:15.552Z,65.60
2022-08-25T07:52:55.059Z,65.70
2022-08-25T07:54:33.920Z,65.90
2022-08-25T07:56:12.762Z,66.20
2022-08-25T07:57:50.875Z,65.20
2022-08-25T07:59:29.458Z,65.00
2022-08-25T08:01:02.799Z,64.30
2022-08-25T08:02:38.955Z,63.70
2022-08-25T08:04:14.076Z,63.30
2022-08-25T08:05:50.188Z,62.50
2022-08-25T08:07:43.067Z,62.00
2022-08-25T08:09:17.607Z,61.30
2022-08-25T08:11:04.476Z,61.20
2022-08-25T08:12:39.549Z,60.70
2022-08-25T08:14:14.502Z,59.90
2022-08-25T08:15:50.900Z,59.40
2022-08-25T08:17:24.265Z,58.80
2022-08-25T08:18:59.442Z,58.40
2022-08-25T08:20:42.712Z,58.40
2022-08-25T08:22:16.952Z,57.70
2022-08-25T08:23:58.050Z,57.00
2022-08-25T08:25:31.962Z,56.50
2022-08-25T08:27:06.811Z,55.80
2022-08-25T08:28:40.238Z,55.20
2022-08-25T08:30:16.225Z,54.70
2022-08-25T08:31:49.848Z,53.90
2022-08-25T08:33:25.180Z,53.70
2022-08-25T08:34:58.776Z,53.50
2022-08-25T08:36:32.112Z,53.00
2022-08-25T08:38:13.497Z,52.60
2022-08-25T08:39:51.219Z,51.80
2022-08-25T08:42:16.800Z,51.80
2022-08-25T08:44:01.227Z,50.60
2022-08-25T08:45:44.147Z,50.80
2022-08-25T08:47:31.843Z,49.70
2022-08-25T08:49:22.903Z,48.80
2022-08-25T08:51:18.713Z,48.80
2022-08-25T08:53:03.891Z,47.90
2022-08-25T08:54:43.135Z,48.20
2022-08-25T08:56:21.711Z,47.90
2022-08-25T08:57:59.059Z,47.70
2022-08-25T08:59:46.855Z,47.70
2022-08-25T09:01:33.545Z,47.00
2022-08-25T09:03:12.528Z,46.40
2022-08-25T09:04:55.451Z,46.30
2022-08-25T09:06:37.390Z,45.80
2022-08-25T09:08:15.138Z,45.90
2022-08-25T09:09:54.807Z,45.30
2022-08-25T09:11:42.779Z,45.30
2022-08-25T09:13:26.380Z,45.00
2022-08-25T09:15:14.286Z,44.60
2022-08-25T09:16:59.593Z,44.10
2022-08-25T09:18:51.183Z,43.80
2022-08-25T09:20:48.002Z,43.30
2022-08-25T09:22:40.980Z,43.00
2022-08-25T09:24:37.026Z,43.10
2022-08-25T09:26:29.384Z,42.90
2022-08-25T09:28:14.812Z,43.10
2022-08-25T09:30:03.137Z,42.70
2022-08-25T09:31:42.104Z,42.60
2022-08-25T09:33:23.359Z,42.60
2022-08-25T09:34:57.719Z,42.10
2022-08-25T09:36:35.554Z,41.90
2022-08-25T09:38:13.542Z,41.90
2022-08-25T09:39:46.958Z,41.30
2022-08-25T09:41:47.067Z,40.80
2022-08-25T09:43:25.692Z,39.20
2022-08-25T09:44:59.111Z,39.20
2022-08-25T09:46:32.565Z,39.20
2022-08-25T09:48:28.550Z,39.20
2022-08-25T09:50:06.835Z,38.00
2022-08-25T09:51:42.805Z,38.80
2022-08-25T09:53:21.690Z,38.50
2022-08-25T09:54:57.167Z,38.60
2022-08-25T09:56:33.945Z,38.70
2022-08-25T09:58:20.569Z,38.30
2022-08-25T09:59:57.751Z,37.90
2022-08-25T10:01:34.636Z,38.00
2022-08-25T10:03:15.966Z,37.80
2022-08-25T10:04:50.950Z,37.20
2022-08-25T10:06:27.068Z,37.10
2022-08-25T10:08:03.882Z,37.20
2022-08-25T10:09:43.195Z,36.90
2022-08-25T10:11:36.276Z,36.70
2022-08-25T10:13:22.697Z,36.20
2022-08-25T10:14:57.239Z,36.30
2022-08-25T10:16:36.432Z,36.30
2022-08-25T10:18:27.715Z,36.40
2022-08-25T10:20:21.506Z,35.50
2022-08-25T10:22:10.921Z,35.10
2022-08-25T10:23:52.495Z,34.70
2022-08-25T10:25:32.141Z,34.70
2022-08-25T10:27:19.387Z,34.50
2022-08-25T10:29:15.891Z,34.30
2022-08-25T10:31:09.741Z,34.10
2022-08-25T10:33:09.630Z,33.40
2022-08-25T10:34:51.904Z,33.20
2022-08-25T10:36:47.134Z,33.30
2022-08-25T10:38:37.991Z,33.10
2022-08-25T10:40:26.157Z,32.70
2022-08-25T10:42:13.792Z,33.20
2022-08-25T10:43:58.586Z,32.60
2022-08-25T10:45:45.967Z,32.70
2022-08-25T10:47:55.327Z,32.80
2022-08-25T10:49:41.936Z,32.50
2022-08-25T10:51:51.482Z,32.20
2022-08-25T10:53:32.526Z,32.30
2022-08-25T10:55:21.075Z,31.50
2022-08-25T10:57:09.648Z,31.60
2022-08-25T10:59:25.398Z,31.80
2022-08-25T11:01:11.968Z,31.40
2022-08-25T11:03:25.417Z,31.90
2022-08-25T11:05:08.676Z,31.40
2022-08-25T11:06:54.806Z,32.20
2022-08-25T11:08:38.744Z,31.60
2022-08-25T11:10:20.059Z,30.90
2022-08-25T11:11:59.901Z,30.80
2022-08-25T11:13:42.619Z,30.60
2022-08-25T11:15:25.168Z,30.30
2022-08-25T11:17:06.125Z,30.10
2022-08-25T11:18:48.681Z,30.10
2022-08-25T11:20:33.445Z,30.10
2022-08-25T11:22:21.136Z,29.60
2022-08-25T11:24:05.755Z,29.30
2022-08-25T11:25:44.531Z,29.20
2022-08-25T11:27:24.789Z,29.70
2022-08-25T11:29:11.403Z,29.30
2022-08-25T11:30:46.413Z,29.00
2022-08-25T11:32:24.731Z,29.40
2022-08-25T11:34:00.555Z,29.40
2022-08-25T11:35:41.307Z,29.60
2022-08-25T11:37:26.967Z,29.40
2022-08-25T11:39:16.558Z,29.20
2022-08-25T11:41:10.976Z,28.80
2022-08-25T11:43:02.580Z,28.40
2022-08-25T11:44:55.103Z,28.40
2022-08-25T11:46:46.206Z,28.40
2022-08-25T11:48:34.050Z,28.10
2022-08-25T11:50:24.116Z,28.00
2022-08-25T11:52:03.552Z,28.10
2022-08-25T11:53:42.433Z,28.40
2022-08-25T11:55:23.057Z,28.30
2022-08-25T11:57:04.201Z,27.70
2022-08-25T11:58:46.984Z,27.50
2022-08-25T12:00:43.147Z,27.40
2022-08-25T12:02:37.280Z,27.30
2022-08-25T12:04:16.144Z,27.30
2022-08-25T12:06:16.069Z,27.40
2022-08-25T12:08:37.967Z,27.80
2022-08-25T12:10:55.611Z,27.30
2022-08-25T12:12:31.780Z,27.00
2022-08-25T12:14:37.031Z,27.40
2022-08-25T12:16:44.544Z,27.10
2022-08-25T12:18:45.921Z,26.90
2022-08-25T12:20:19.803Z,26.90
2022-08-25T12:21:55.759Z,27.20
2022-08-25T12:23:32.590Z,27.20
2022-08-25T12:25:20.862Z,27.30
2022-08-25T12:27:02.230Z,27.10
2022-08-25T12:28:52.862Z,27.60
2022-08-25T12:30:40.052Z,27.20
2022-08-25T12:32:45.952Z,26.90
2022-08-25T12:34:53.462Z,27.80
2022-08-25T12:36:31.611Z,27.10
2022-08-25T12:38:13.614Z,27.40
2022-08-25T12:39:59.449Z,27.50
2022-08-25T12:41:33.749Z,27.00
2022-08-25T12:43:26.697Z,27.00
2022-08-25T12:45:33.209Z,26.80
2022-08-25T12:47:29.723Z,26.40
2022-08-25T12:49:12.476Z,26.30
2022-08-25T12:50:50.548Z,26.60
2022-08-25T12:52:28.146Z,26.50
2022-08-25T12:54:19.012Z,26.00
2022-08-25T12:56:02.742Z,25.50
2022-08-25T12:57:44.629Z,25.50
2022-08-25T12:59:22.763Z,26.00
2022-08-25T13:01:36.172Z,25.70
2022-08-25T13:06:05.710Z,25.10
2022-08-25T13:08:15.128Z,25.20
2022-08-25T13:10:29.468Z,25.10
2022-08-25T13:12:17.275Z,25.30
2022-08-25T13:14:01.480Z,25.10
2022-08-25T13:15:41.902Z,24.80
2022-08-25T13:17:27.988Z,25.00
2022-08-25T13:19:07.932Z,24.70
2022-08-25T13:20:44.006Z,24.50
2022-08-25T13:22:20.796Z,24.50
2022-08-25T13:24:01.268Z,24.50
2022-08-25T13:25:49.259Z,24.60
2022-08-25T13:27:28.315Z,24.40
2022-08-25T13:29:17.873Z,24.40
2022-08-25T13:31:06.342Z,24.70
2022-08-25T13:32:39.855Z,24.60
2022-08-25T13:34:23.156Z,24.50
2022-08-25T13:36:26.275Z,24.10
2022-08-25T13:38:15.534Z,24.50
2022-08-25T13:39:56.512Z,24.60
2022-08-25T13:41:30.302Z,24.90
2022-08-25T13:43:12.240Z,24.90
2022-08-25T13:44:52.385Z,24.90
2022-08-25T13:46:28.816Z,24.90
2022-08-25T13:48:05.899Z,24.80
2022-08-25T13:49:43.035Z,25.20
2022-08-25T13:51:25.412Z,25.10
2022-08-25T13:53:11.692Z,25.40
2022-08-25T13:54:48.069Z,25.40
2022-08-25T13:56:38.445Z,25.20
2022-08-25T13:58:24.620Z,25.10
2022-08-25T14:00:14.156Z,25.50
2022-08-25T14:01:50.814Z,25.70
2022-08-25T14:03:34.424Z,25.80
2022-08-25T14:05:09.588Z,25.90
2022-08-25T14:06:44.383Z,26.10
2022-08-25T14:08:34.719Z,25.90
2022-08-25T14:10:12.129Z,25.90
2022-08-25T14:11:50.120Z,26.00
2022-08-25T14:13:33.683Z,26.10
2022-08-25T14:15:26.974Z,26.10
2022-08-25T14:17:16.409Z,26.10
2022-08-25T14:19:01.822Z,25.50
2022-08-25T14:20:37.839Z,25.50
2022-08-25T14:22:11.219Z,25.40
2022-08-25T14:23:46.148Z,25.40
2022-08-25T14:25:19.623Z,25.50
2022-08-25T14:26:54.887Z,25.70
2022-08-25T14:28:32.238Z,25.70
2022-08-25T14:30:07.484Z,25.60
2022-08-25T14:31:44.843Z,25.40
2022-08-25T14:33:24.324Z,25.40
2022-08-25T14:34:57.805Z,25.50
2022-08-25T14:36:34.304Z,25.40
2022-08-25T14:38:12.135Z,25.30
2022-08-25T14:39:46.929Z,25.20
2022-08-25T14:41:21.744Z,25.40
2022-08-25T14:42:55.148Z,25.30
2022-08-25T14:44:28.439Z,25.60
2022-08-25T14:46:08.239Z,25.30
2022-08-25T14:47:42.559Z,25.20
2022-08-25T14:49:24.841Z,25.20
2022-08-25T14:51:01.066Z,25.20
2022-08-25T14:52:35.370Z,25.20
2022-08-25T14:54:14.783Z,25.40
2022-08-25T14:55:53.651Z,25.70
2022-08-25T14:57:32.732Z,25.70
2022-08-25T14:59:06.275Z,25.60
2022-08-25T15:00:45.565Z,25.50
2022-08-25T15:02:30.497Z,25.40
2022-08-25T15:04:12.658Z,25.70
2022-08-25T15:05:50.793Z,25.40
2022-08-25T15:07:44.302Z,25.50
2022-08-25T15:09:18.845Z,25.70
2022-08-25T15:10:52.303Z,25.80
2022-08-25T15:12:46.070Z,25.70
2022-08-25T15:14:29.057Z,25.50
2022-08-25T15:16:09.710Z,25.20
2022-08-25T15:17:47.635Z,25.30
2022-08-25T15:19:26.937Z,25.20
2022-08-25T15:21:02.988Z,25.40
2022-08-25T15:22:36.890Z,25.50
2022-08-25T15:24:17.575Z,25.50
2022-08-25T15:25:54.663Z,25.50
2022-08-25T15:27:30.906Z,25.30
2022-08-25T15:29:04.875Z,25.20
2022-08-25T15:30:41.033Z,25.10
2022-08-25T15:32:16.299Z,25.00
2022-08-25T15:33:52.111Z,25.10
2022-08-25T15:35:27.682Z,25.30
2022-08-25T15:37:12.133Z,25.20
2022-08-25T15:38:46.200Z,25.10
2022-08-25T15:40:20.474Z,25.10
2022-08-25T15:41:54.122Z,25.00
2022-08-25T15:43:27.433Z,25.00
2022-08-25T15:45:01.123Z,25.20
2022-08-25T15:46:37.435Z,25.30
2022-08-25T15:48:11.599Z,25.30
2022-08-25T15:49:45.227Z,25.10
2022-08-25T15:51:18.937Z,25.00
2022-08-25T15:52:53.950Z,25.00
2022-08-25T15:54:29.090Z,25.10
2022-08-25T15:56:06.984Z,25.40
2022-08-25T15:57:40.972Z,24.90
2022-08-25T15:59:15.961Z,25.30
2022-08-25T16:00:56.405Z,25.00
2022-08-25T16:02:32.464Z,25.20
2022-08-25T16:04:06.015Z,25.10
2022-08-25T16:05:47.893Z,25.00
2022-08-25T16:07:22.323Z,25.30
2022-08-25T16:08:57.559Z,25.60
2022-08-25T16:10:35.195Z,25.50
2022-08-25T16:12:10.188Z,25.20
2022-08-25T16:13:43.803Z,25.60
2022-08-25T16:15:17.539Z,25.80
2022-08-25T16:16:52.521Z,25.90
2022-08-25T16:18:26.034Z,26.20
2022-08-25T16:20:01.223Z,26.40
2022-08-25T16:21:42.200Z,26.30
2022-08-25T16:23:21.947Z,26.20
2022-08-25T16:24:56.659Z,26.00
2022-08-25T16:26:31.812Z,26.20
2022-08-25T16:28:05.707Z,26.40
2022-08-25T16:29:40.945Z,26.70
2022-08-25T16:31:17.070Z,26.70
2022-08-25T16:32:50.774Z,27.00
2022-08-25T16:34:28.714Z,26.90
2022-08-25T16:36:09.940Z,27.00
2022-08-25T16:37:43.299Z,27.00
2022-08-25T16:39:16.906Z,27.60
2022-08-25T16:40:51.819Z,27.90
2022-08-25T16:42:26.233Z,28.10
2022-08-25T16:43:59.527Z,28.20
2022-08-25T16:45:32.971Z,28.30
2022-08-25T16:47:08.753Z,28.60
2022-08-25T16:48:43.767Z,29.00
2022-08-25T16:50:18.107Z,28.80
2022-08-25T16:51:56.996Z,29.40
2022-08-25T16:53:48.768Z,29.20
2022-08-25T16:55:22.067Z,29.50
2022-08-25T16:56:58.382Z,29.80
2022-08-25T16:58:33.001Z,30.00
2022-08-25T17:00:10.700Z,29.90
2022-08-25T17:01:44.981Z,29.90
2022-08-25T17:03:19.566Z,29.70
2022-08-25T17:04:53.040Z,29.70
2022-08-25T17:06:34.505Z,29.90
2022-08-25T17:08:25.812Z,30.40
2022-08-25T17:09:59.503Z,30.30
2022-08-25T17:11:36.303Z,30.20
2022-08-25T17:13:12.774Z,30.50
2022-08-25T17:14:47.314Z,30.70
2022-08-25T17:16:24.763Z,30.90
2022-08-25T17:17:58.445Z,31.20
2022-08-25T17:19:32.865Z,31.00
2022-08-25T17:21:09.442Z,31.40
2022-08-25T17:22:44.327Z,31.60
2022-08-25T17:24:18.118Z,31.40
2022-08-25T17:25:52.392Z,31.70
2022-08-25T17:27:25.955Z,32.10
2022-08-25T17:29:02.323Z,32.40
2022-08-25T17:30:38.950Z,32.60
2022-08-25T17:32:12.903Z,32.80
2022-08-25T17:33:48.640Z,33.00
2022-08-25T17:35:22.822Z,33.30
2022-08-25T17:36:56.887Z,33.40
2022-08-25T17:38:33.364Z,33.70
2022-08-25T17:40:08.816Z,33.90
2022-08-25T17:41:45.048Z,34.20
2022-08-25T17:43:18.411Z,34.80
2022-08-25T17:44:53.227Z,34.90
2022-08-25T17:46:26.737Z,34.80
2022-08-25T17:48:01.114Z,34.90
2022-08-25T17:49:34.790Z,35.00
2022-08-25T17:51:09.921Z,35.00
2022-08-25T17:52:43.356Z,35.20
2022-08-25T17:54:18.005Z,35.40
2022-08-25T17:56:01.397Z,35.40
2022-08-25T17:57:34.699Z,35.30
2022-08-25T17:59:09.634Z,35.20
2022-08-25T18:00:46.257Z,35.60
2022-08-25T18:02:20.655Z,36.10
2022-08-25T18:03:54.639Z,36.20
2022-08-25T18:05:29.622Z,36.50
2022-08-25T18:07:03.159Z,36.50
2022-08-25T18:08:36.813Z,36.70
2022-08-25T18:10:12.572Z,36.80
2022-08-25T18:11:46.081Z,37.00
2022-08-25T18:13:20.419Z,37.30
2022-08-25T18:14:54.334Z,37.50
2022-08-25T18:16:31.415Z,37.80
2022-08-25T18:18:05.146Z,38.00
2022-08-25T18:19:40.218Z,38.60
2022-08-25T18:21:16.391Z,38.10
2022-08-25T18:22:50.451Z,38.20
2022-08-25T18:24:24.437Z,38.10
2022-08-25T18:26:00.905Z,38.30
2022-08-25T18:27:36.060Z,38.60
2022-08-25T18:29:12.059Z,38.50
2022-08-25T18:30:46.232Z,38.60
2022-08-25T18:32:22.847Z,38.80
2022-08-25T18:33:59.506Z,38.90
2022-08-25T18:35:33.759Z,38.70
2022-08-25T18:37:21.055Z,38.90
2022-08-25T18:39:13.648Z,38.90
2022-08-25T18:40:47.147Z,39.00
2022-08-25T18:42:20.667Z,39.20
2022-08-25T18:43:54.779Z,39.40
2022-08-25T18:45:32.477Z,39.40
2022-08-25T18:47:07.872Z,39.80
2022-08-25T18:48:42.637Z,39.80
2022-08-25T18:50:16.659Z,39.90
2022-08-25T18:51:53.608Z,39.90
2022-08-25T18:53:30.585Z,39.90
2022-08-25T18:55:12.314Z,40.20
2022-08-25T18:56:46.496Z,40.30
2022-08-25T18:58:20.335Z,40.20
2022-08-25T18:59:54.439Z,40.50
2022-08-25T19:01:28.823Z,40.50
2022-08-25T19:03:04.885Z,41.30
2022-08-25T19:04:40.415Z,40.70
2022-08-25T19:06:15.708Z,40.80
2022-08-25T19:07:51.788Z,40.70
2022-08-25T19:09:25.351Z,40.60
2022-08-25T19:10:58.678Z,40.90
2022-08-25T19:12:32.967Z,41.00
2022-08-25T19:14:12.573Z,41.10
2022-08-25T19:15:47.907Z,41.20
2022-08-25T19:17:24.663Z,41.40
2022-08-25T19:18:58.527Z,41.40
2022-08-25T19:20:34.688Z,41.70
2022-08-25T19:22:16.565Z,41.90
2022-08-25T19:24:03.081Z,41.90
2022-08-25T19:25:41.680Z,42.00
2022-08-25T19:27:16.158Z,42.10
2022-08-25T19:28:50.838Z,42.20
2022-08-25T19:30:28.856Z,42.30
2022-08-25T19:32:03.244Z,42.50
2022-08-25T19:33:44.071Z,42.70
2022-08-25T19:35:31.774Z,42.80
2022-08-25T19:37:08.624Z,43.10
2022-08-25T19:38:43.984Z,43.00
2022-08-25T19:40:19.495Z,42.90
2022-08-25T19:41:53.914Z,43.20
2022-08-25T19:43:27.296Z,43.30
2022-08-25T19:45:00.874Z,43.30
2022-08-25T19:46:38.294Z,43.30
2022-08-25T19:48:13.779Z,43.30
2022-08-25T19:49:48.682Z,43.20
2022-08-25T19:51:22.128Z,43.30
2022-08-25T19:52:57.410Z,43.50
2022-08-25T19:54:34.499Z,43.80
2022-08-25T19:56:08.147Z,43.80
2022-08-25T19:57:42.958Z,43.90
2022-08-25T19:59:18.105Z,44.00
2022-08-25T20:00:52.071Z,44.10
2022-08-25T20:02:29.853Z,44.20
2022-08-25T20:04:04.272Z,44.40
2022-08-25T20:05:40.104Z,44.40
2022-08-25T20:07:12.644Z,44.50
2022-08-25T20:08:47.419Z,44.70
2022-08-25T20:10:41.168Z,44.70
2022-08-25T20:13:54.846Z,44.70
2022-08-25T20:15:34.506Z,44.90
2022-08-25T20:17:23.459Z,45.60
2022-08-25T20:19:00.114Z,45.10
2022-08-25T20:20:35.467Z,45.00
2022-08-25T20:22:09.149Z,45.20
2022-08-25T20:24:03.723Z,45.40
2022-08-25T20:25:37.259Z,45.60
2022-08-25T20:27:10.604Z,45.60
2022-08-25T20:28:44.067Z,45.80
2022-08-25T20:30:22.091Z,45.90
2022-08-25T20:31:54.778Z,46.20
2022-08-25T20:33:30.240Z,46.20
2022-08-25T20:35:08.985Z,46.20
2022-08-25T20:36:50.012Z,46.40
2022-08-25T20:38:24.151Z,46.50
2022-08-25T20:39:59.691Z,46.60
2022-08-25T20:41:33.967Z,46.80
2022-08-25T20:43:10.313Z,46.90
2022-08-25T20:44:44.214Z,47.00
2022-08-25T20:46:18.946Z,47.00
2022-08-25T20:47:52.919Z,47.10
2022-08-25T20:49:28.163Z,47.10
2022-08-25T20:51:06.075Z,47.10
2022-08-25T20:52:43.682Z,47.30
2022-08-25T20:54:17.155Z,47.30
2022-08-25T20:55:51.911Z,47.30
2022-08-25T20:57:26.582Z,47.60
2022-08-25T20:59:02.127Z,48.30
2022-08-25T21:00:36.084Z,47.80
2022-08-25T21:02:10.060Z,47.90
2022-08-25T21:03:46.016Z,48.00
2022-08-25T21:05:21.414Z,48.10
2022-08-25T21:06:55.533Z,48.20
2022-08-25T21:08:30.115Z,48.30
2022-08-25T21:10:03.786Z,48.40
2022-08-25T21:11:39.484Z,48.50
2022-08-25T21:13:13.323Z,48.70
2022-08-25T21:14:46.668Z,48.70